createdAt,value
2023-01-17T00:02:14.204Z,13.50
2023-01-17T00:05:00.338Z,16.67
2023-01-17T00:07:46.663Z,20.10
2023-01-17T00:10:17.400Z,15.40
2023-01-17T00:12:57.046Z,18.60
2023-01-17T00:15:25.647Z,15.63
2023-01-17T00:17:53.546Z,19.73
2023-01-17T00:20:42.613Z,15.93
2023-01-17T00:23:33.237Z,17.90
2023-01-17T00:26:03.260Z,16.60
2023-01-17T00:28:36.215Z,16.23
2023-01-17T00:31:05.010Z,16.57
2023-01-17T00:33:32.072Z,16.30
2023-01-17T00:36:00.232Z,16.97
2023-01-17T00:38:29.714Z,13.50
2023-01-17T00:41:05.870Z,15.00
2023-01-17T00:43:51.241Z,13.80
2023-01-17T00:46:37.002Z,12.70
2023-01-17T00:49:23.077Z,13.40
2023-01-17T00:52:08.711Z,14.47
2023-01-17T00:54:54.344Z,16.47
2023-01-17T00:57:39.809Z,13.80
2023-01-17T01:00:26.051Z,13.67
2023-01-17T01:03:11.574Z,15.83
2023-01-17T01:05:56.963Z,16.53
2023-01-17T01:08:44.688Z,15.23
2023-01-17T01:11:33.686Z,12.90
2023-01-17T01:14:19.737Z,13.67
2023-01-17T01:17:05.636Z,11.70
2023-01-17T01:19:51.497Z,16.63
2023-01-17T01:22:36.832Z,16.60
2023-01-17T01:25:22.865Z,15.27
2023-01-17T01:28:08.414Z,19.97
2023-01-17T01:30:53.940Z,17.43
2023-01-17T01:33:20.778Z,19.00
2023-01-17T01:35:56.782Z,14.50
2023-01-17T01:38:26.306Z,14.98
2023-01-17T01:40:56.070Z,16.57
2023-01-17T01:43:49.122Z,14.93
2023-01-17T01:46:41.159Z,18.40
2023-01-17T01:49:25.832Z,16.77
2023-01-17T01:51:58.496Z,18.03
2023-01-17T01:54:37.215Z,16.53
2023-01-17T01:57:07.692Z,19.67
2023-01-17T01:59:41.110Z,16.33
2023-01-17T02:02:08.769Z,17.60
2023-01-17T02:04:36.231Z,17.13
2023-01-17T02:07:12.539Z,15.63
2023-01-17T02:09:39.446Z,19.23
2023-01-17T02:12:07.453Z,21.73
2023-01-17T02:14:34.345Z,17.10
2023-01-17T02:17:04.256Z,19.93
2023-01-17T02:20:05.052Z,22.30
2023-01-17T02:23:09.655Z,20.97
2023-01-17T02:26:14.707Z,18.77
2023-01-17T02:28:50.233Z,20.87
2023-01-17T02:31:52.254Z,19.83
2023-01-17T02:34:26.335Z,19.13
2023-01-17T02:37:19.712Z,20.40
2023-01-17T02:39:56.654Z,18.73
2023-01-17T02:44:53.653Z,20.07
2023-01-17T02:47:27.068Z,18.17
2023-01-17T02:50:02.246Z,20.40
2023-01-17T02:53:07.804Z,22.35
2023-01-17T02:55:55.240Z,14.53
2023-01-17T02:58:59.249Z,18.87
2023-01-17T03:01:44.157Z,17.33
2023-01-17T03:04:29.363Z,20.03
2023-01-17T03:07:03.879Z,21.97
2023-01-17T03:09:31.851Z,16.90
2023-01-17T03:11:59.754Z,14.23
2023-01-17T03:14:26.766Z,19.33
2023-01-17T03:16:53.739Z,20.00
2023-01-17T03:19:20.678Z,17.53
2023-01-17T03:21:49.416Z,19.70
2023-01-17T03:24:16.569Z,16.57
2023-01-17T03:26:47.980Z,17.87
2023-01-17T03:29:16.698Z,21.33
2023-01-17T03:31:43.780Z,21.20
2023-01-17T03:34:10.740Z,16.50
2023-01-17T03:36:37.700Z,17.53
2023-01-17T03:39:04.654Z,18.13
2023-01-17T03:41:31.606Z,18.10
2023-01-17T03:43:58.574Z,24.37
2023-01-17T03:46:27.588Z,18.23
2023-01-17T03:48:55.017Z,22.90
2023-01-17T03:51:22.126Z,16.60
2023-01-17T03:53:50.114Z,17.43
2023-01-17T03:56:17.052Z,19.03
2023-01-17T03:58:44.104Z,19.93
2023-01-17T04:01:11.632Z,18.43
2023-01-17T04:03:38.940Z,15.80
2023-01-17T04:06:06.114Z,19.90
2023-01-17T04:08:33.183Z,18.80
2023-01-17T04:11:00.150Z,18.97
2023-01-17T04:13:27.083Z,21.30
2023-01-17T04:15:54.004Z,18.10
2023-01-17T04:18:23.161Z,16.73
2023-01-17T04:20:50.918Z,20.40
2023-01-17T04:23:18.657Z,20.40
2023-01-17T04:25:45.660Z,17.43
2023-01-17T04:28:12.750Z,18.73
2023-01-17T04:30:39.712Z,20.97
2023-01-17T04:33:06.675Z,20.00
2023-01-17T04:35:33.766Z,24.40
2023-01-17T04:38:01.033Z,20.63
2023-01-17T04:40:29.721Z,21.70
2023-01-17T04:42:57.955Z,21.37
2023-01-17T04:45:25.119Z,21.33
2023-01-17T04:47:52.113Z,25.07
2023-01-17T04:50:19.067Z,25.33
2023-01-17T04:52:46.062Z,20.73
2023-01-17T04:55:13.147Z,21.53
2023-01-17T04:57:40.068Z,21.60
2023-01-17T05:00:07.730Z,21.77
2023-01-17T05:02:34.769Z,17.07
2023-01-17T05:05:01.680Z,23.73
2023-01-17T05:07:30.379Z,21.20
2023-01-17T05:09:57.320Z,23.13
2023-01-17T05:12:24.208Z,22.47
2023-01-17T05:14:51.485Z,21.70
2023-01-17T05:17:18.396Z,22.33
2023-01-17T05:19:45.521Z,17.97
2023-01-17T05:22:16.589Z,21.23
2023-01-17T05:24:47.443Z,18.13
2023-01-17T05:27:15.287Z,31.23
2023-01-17T05:29:42.374Z,22.10
2023-01-17T05:32:09.428Z,20.27
2023-01-17T05:34:36.415Z,21.03
2023-01-17T05:37:03.355Z,21.37
2023-01-17T05:39:31.145Z,20.63
2023-01-17T05:41:59.114Z,20.40
2023-01-17T05:44:27.835Z,19.33
2023-01-17T05:46:55.167Z,22.33
2023-01-17T05:49:22.253Z,19.33
2023-01-17T05:51:49.475Z,20.60
2023-01-17T05:54:16.545Z,20.17
2023-01-17T05:56:44.004Z,24.07
2023-01-17T05:59:13.948Z,23.83
2023-01-17T06:01:40.993Z,20.57
2023-01-17T06:04:07.942Z,20.90
2023-01-17T06:06:34.791Z,18.80
2023-01-17T06:09:01.870Z,18.47
2023-01-17T06:11:28.896Z,20.57
2023-01-17T06:13:55.772Z,17.67
2023-01-17T06:16:22.766Z,20.33
2023-01-17T06:18:49.662Z,23.67
2023-01-17T06:21:16.525Z,21.10
2023-01-17T06:23:43.405Z,21.10
2023-01-17T06:26:11.155Z,20.70
2023-01-17T06:28:38.060Z,20.63
2023-01-17T06:31:09.308Z,34.03
2023-01-17T06:33:36.359Z,17.63
2023-01-17T06:36:03.587Z,24.20
2023-01-17T06:38:30.476Z,18.77
2023-01-17T06:41:00.601Z,24.40
2023-01-17T06:43:32.650Z,23.03
2023-01-17T06:46:01.057Z,19.30
2023-01-17T06:48:28.259Z,18.23
2023-01-17T06:50:57.073Z,20.77
2023-01-17T06:53:24.042Z,22.13
2023-01-17T06:55:52.633Z,27.73
2023-01-17T06:58:19.481Z,19.40
2023-01-17T07:00:46.672Z,23.00
2023-01-17T07:03:20.927Z,20.70
2023-01-17T07:05:48.879Z,26.67
2023-01-17T07:08:17.160Z,18.60
2023-01-17T07:10:45.344Z,29.80
2023-01-17T07:13:12.991Z,19.20
2023-01-17T07:15:40.437Z,24.30
2023-01-17T07:18:08.102Z,20.43
2023-01-17T07:20:35.037Z,23.00
2023-01-17T07:23:01.984Z,23.10
2023-01-17T07:25:28.917Z,19.77
2023-01-17T07:27:57.882Z,21.77
2023-01-17T07:30:25.480Z,23.47
2023-01-17T07:32:54.806Z,21.27
2023-01-17T07:35:22.898Z,19.10
2023-01-17T07:37:50.914Z,22.43
2023-01-17T07:40:20.116Z,19.00
2023-01-17T07:42:47.577Z,18.57
2023-01-17T07:45:16.562Z,20.43
2023-01-17T07:47:43.677Z,21.37
2023-01-17T07:50:11.540Z,18.47
2023-01-17T07:52:38.619Z,20.70
2023-01-17T07:55:06.305Z,21.37
2023-01-17T07:57:33.307Z,20.50
2023-01-17T08:00:00.324Z,18.97
2023-01-17T08:02:27.293Z,21.23
2023-01-17T08:04:54.130Z,19.23
2023-01-17T08:07:21.033Z,22.20
2023-01-17T08:09:49.904Z,21.93
2023-01-17T08:12:17.155Z,19.20
2023-01-17T08:14:44.649Z,20.47
2023-01-17T08:17:14.648Z,18.30
2023-01-17T08:19:41.628Z,22.37
2023-01-17T08:22:08.703Z,22.53
2023-01-17T08:24:35.625Z,27.80
2023-01-17T08:27:02.571Z,16.80
2023-01-17T08:29:29.664Z,18.00
2023-01-17T08:31:56.561Z,22.37
2023-01-17T08:34:23.619Z,23.20
2023-01-17T08:36:52.989Z,20.23
2023-01-17T08:39:21.066Z,21.20
2023-01-17T08:41:48.028Z,31.43
2023-01-17T08:44:15.934Z,22.80
2023-01-17T08:46:44.407Z,27.93
2023-01-17T08:49:12.581Z,22.93
2023-01-17T08:51:40.405Z,24.67
2023-01-17T08:54:09.583Z,23.67
2023-01-17T08:56:36.465Z,28.00
2023-01-17T08:59:03.605Z,23.83
2023-01-17T09:01:30.666Z,22.30
2023-01-17T09:03:57.681Z,25.93
2023-01-17T09:06:24.768Z,23.60
2023-01-17T09:08:54.752Z,25.67
2023-01-17T09:11:21.754Z,24.77
2023-01-17T09:13:48.608Z,24.93
2023-01-17T09:16:15.538Z,18.02
2023-01-17T09:18:42.435Z,22.93
2023-01-17T09:21:14.148Z,23.13
2023-01-17T09:23:41.758Z,24.60
2023-01-17T09:26:19.137Z,22.48
2023-01-17T09:28:46.193Z,21.97
2023-01-17T09:31:13.888Z,24.73
2023-01-17T09:33:43.074Z,24.40
2023-01-17T09:36:11.505Z,24.30
2023-01-17T09:38:38.846Z,25.20
2023-01-17T09:41:30.704Z,23.53
2023-01-17T09:43:57.656Z,23.97
2023-01-17T09:46:29.727Z,20.50
2023-01-17T09:49:22.308Z,27.75
2023-01-17T09:51:49.236Z,24.40
2023-01-17T09:54:36.279Z,23.97
2023-01-17T09:57:47.033Z,25.30
2023-01-17T10:00:30.387Z,20.35
2023-01-17T10:03:09.421Z,29.88
2023-01-17T10:05:57.886Z,22.00
2023-01-17T10:08:38.015Z,20.95
2023-01-17T10:11:15.271Z,17.38
2023-01-17T10:14:00.737Z,20.52
2023-01-17T10:16:49.427Z,30.90
2023-01-17T10:19:29.311Z,23.98
2023-01-17T10:22:20.051Z,22.50
2023-01-17T10:25:13.246Z,22.00
2023-01-17T10:28:24.956Z,25.48
2023-01-17T10:30:58.309Z,20.40
2023-01-17T10:33:29.104Z,25.13
2023-01-17T10:35:59.692Z,26.38
2023-01-17T10:38:36.094Z,27.17
2023-01-17T10:41:17.221Z,23.23
2023-01-17T10:44:02.702Z,27.85
2023-01-17T10:46:44.060Z,23.33
2023-01-17T10:49:23.521Z,26.20
2023-01-17T10:52:02.707Z,28.90
2023-01-17T10:54:49.666Z,30.40
2023-01-17T10:57:21.674Z,28.35
2023-01-17T10:59:49.279Z,21.60
2023-01-17T11:02:24.889Z,28.20
2023-01-17T11:04:54.890Z,29.02
2023-01-17T11:07:27.439Z,29.38
2023-01-17T11:09:56.609Z,30.52
2023-01-17T11:12:29.535Z,33.63
2023-01-17T11:15:05.376Z,34.58
2023-01-17T11:17:33.938Z,36.95
2023-01-17T11:20:20.255Z,31.30
2023-01-17T11:23:06.543Z,29.83
2023-01-17T11:25:34.531Z,29.40
2023-01-17T11:28:05.744Z,28.35
2023-01-17T11:30:32.827Z,33.65
2023-01-17T11:33:06.232Z,29.65
2023-01-17T11:35:44.118Z,22.27
2023-01-17T11:38:13.637Z,31.17
2023-01-17T11:41:20.351Z,27.90
2023-01-17T11:43:56.614Z,35.13
2023-01-17T11:46:24.451Z,25.13
2023-01-17T11:48:56.063Z,33.97
2023-01-17T11:51:35.055Z,28.02
2023-01-17T11:54:39.672Z,35.67
2023-01-17T11:57:17.788Z,26.65
2023-01-17T11:59:45.305Z,30.27
2023-01-17T12:03:00.098Z,35.08
2023-01-17T12:05:53.706Z,29.30
2023-01-17T12:09:00.644Z,20.75
2023-01-17T12:12:06.740Z,27.73
2023-01-17T12:14:55.025Z,25.75
2023-01-17T12:17:27.603Z,25.77
2023-01-17T12:20:06.301Z,30.52
2023-01-17T12:22:58.113Z,29.95
2023-01-17T12:25:28.976Z,24.85
2023-01-17T12:27:59.969Z,29.70
2023-01-17T12:31:11.961Z,27.17
2023-01-17T12:33:46.153Z,31.55
2023-01-17T12:36:37.178Z,34.47
2023-01-17T12:39:10.232Z,29.35
2023-01-17T12:41:50.918Z,29.00
2023-01-17T12:44:21.781Z,34.55
2023-01-17T12:46:59.028Z,28.65
2023-01-17T12:49:42.978Z,26.63
2023-01-17T12:52:34.659Z,36.08
2023-01-17T12:55:09.798Z,26.67
2023-01-17T12:57:45.439Z,28.13
2023-01-17T13:00:23.165Z,28.55
2023-01-17T13:02:56.782Z,24.73
2023-01-17T13:05:37.302Z,23.17
2023-01-17T13:08:15.758Z,26.50
2023-01-17T13:10:52.154Z,31.38
2023-01-17T13:13:28.180Z,27.40
2023-01-17T13:16:13.315Z,33.97
2023-01-17T13:18:46.394Z,15.13
2023-01-17T13:21:16.354Z,24.77
2023-01-17T13:24:07.849Z,26.42
2023-01-17T13:27:02.590Z,25.73
2023-01-17T13:29:52.391Z,20.33
2023-01-17T13:32:38.081Z,28.25
2023-01-17T13:35:16.328Z,27.85
2023-01-17T13:38:04.157Z,18.80
2023-01-17T13:40:49.700Z,24.67
2023-01-17T13:43:30.569Z,20.42
2023-01-17T13:46:01.389Z,24.08
2023-01-17T13:48:31.755Z,23.95
2023-01-17T13:51:06.461Z,24.67
2023-01-17T13:53:39.119Z,23.45
2023-01-17T13:56:27.762Z,26.70
2023-01-17T13:59:02.821Z,16.65
2023-01-17T14:01:34.853Z,26.10
2023-01-17T14:04:04.902Z,17.95
2023-01-17T14:06:41.177Z,19.02
2023-01-17T14:09:08.111Z,20.65
2023-01-17T14:11:52.824Z,21.20
2023-01-17T14:14:44.538Z,22.08
2023-01-17T14:17:23.734Z,22.00
2023-01-17T14:19:51.419Z,19.38
2023-01-17T14:22:21.055Z,23.73
2023-01-17T14:25:15.158Z,19.60
2023-01-17T14:27:50.070Z,23.13
2023-01-17T14:30:17.568Z,23.95
2023-01-17T14:33:17.009Z,21.17
2023-01-17T14:35:54.454Z,17.95
2023-01-17T14:38:24.563Z,18.48
2023-01-17T14:40:54.496Z,21.50
2023-01-17T14:43:23.865Z,22.70
2023-01-17T14:46:00.824Z,20.77
2023-01-17T14:48:29.018Z,24.92
2023-01-17T14:51:00.170Z,24.67
2023-01-17T14:53:31.624Z,19.60
2023-01-17T14:56:02.249Z,21.75
2023-01-17T14:58:34.390Z,22.13
2023-01-17T15:01:05.273Z,24.02
2023-01-17T15:03:41.961Z,24.90
2023-01-17T15:06:21.911Z,17.23
2023-01-17T15:08:49.533Z,21.65
2023-01-17T15:11:21.146Z,21.40
2023-01-17T15:13:51.481Z,20.00
2023-01-17T15:16:28.169Z,22.23
2023-01-17T15:18:57.429Z,21.35
2023-01-17T15:21:31.273Z,22.00
2023-01-17T15:24:07.149Z,24.83
2023-01-17T15:26:36.169Z,22.83
2023-01-17T15:29:06.556Z,20.65
2023-01-17T15:31:44.116Z,25.15
2023-01-17T15:34:30.844Z,26.33
2023-01-17T15:37:02.420Z,22.40
2023-01-17T15:39:35.990Z,24.05
2023-01-17T15:42:06.698Z,23.65
2023-01-17T15:44:48.941Z,19.40
2023-01-17T15:47:33.070Z,25.23
2023-01-17T15:50:17.892Z,23.60
2023-01-17T15:53:27.720Z,20.15
2023-01-17T15:55:54.817Z,23.13
2023-01-17T15:58:27.847Z,24.67
2023-01-17T16:00:55.630Z,29.92
2023-01-17T16:03:29.455Z,25.10
2023-01-17T16:06:00.253Z,25.02
2023-01-17T16:08:38.617Z,22.67
2023-01-17T16:11:07.900Z,25.70
2023-01-17T16:13:39.325Z,24.10
2023-01-17T16:16:11.501Z,24.25
2023-01-17T16:18:38.853Z,23.90
2023-01-17T16:21:27.168Z,21.50
2023-01-17T16:23:54.269Z,23.27
2023-01-17T16:26:21.542Z,22.58
2023-01-17T16:28:49.369Z,25.67
2023-01-17T16:31:17.064Z,24.52
2023-01-17T16:33:45.985Z,24.50
2023-01-17T16:36:16.845Z,25.88
2023-01-17T16:38:45.452Z,22.67
2023-01-17T16:41:12.598Z,22.83
2023-01-17T16:43:39.560Z,23.52
2023-01-17T16:46:06.721Z,21.38
2023-01-17T16:48:33.791Z,22.58
2023-01-17T16:51:06.408Z,20.63
2023-01-17T16:53:33.553Z,25.13
2023-01-17T16:56:08.895Z,22.60
2023-01-17T16:58:35.819Z,23.20
2023-01-17T17:01:02.815Z,23.02
2023-01-17T17:03:29.931Z,24.23
2023-01-17T17:05:59.502Z,29.25
2023-01-17T17:08:29.632Z,26.98
2023-01-17T17:11:13.173Z,29.85
2023-01-17T17:13:42.091Z,27.42
2023-01-17T17:16:11.311Z,29.30
2023-01-17T17:18:38.349Z,29.88
2023-01-17T17:21:05.363Z,30.77
2023-01-17T17:23:32.332Z,33.45
2023-01-17T17:25:59.288Z,32.50
2023-01-17T17:28:26.270Z,30.05
2023-01-17T17:31:06.062Z,34.63
2023-01-17T17:33:33.189Z,31.70
2023-01-17T17:36:05.488Z,31.45
2023-01-17T17:38:35.096Z,24.95
2023-01-17T17:41:09.943Z,31.17
2023-01-17T17:43:42.848Z,30.75
2023-01-17T17:46:09.900Z,34.00
2023-01-17T17:48:37.220Z,35.08
2023-01-17T17:51:04.783Z,29.58
2023-01-17T17:53:32.478Z,36.40
2023-01-17T17:56:03.922Z,36.17
2023-01-17T17:58:33.145Z,30.83
2023-01-17T18:01:05.002Z,29.95
2023-01-17T18:03:32.889Z,31.83
2023-01-17T18:06:07.729Z,33.47
2023-01-17T18:08:35.985Z,36.33
2023-01-17T18:11:06.236Z,33.75
2023-01-17T18:13:34.174Z,35.83
2023-01-17T18:16:04.877Z,27.88
2023-01-17T18:18:33.062Z,31.08
2023-01-17T18:21:05.713Z,38.53
2023-01-17T18:23:32.627Z,35.13
2023-01-17T18:25:59.540Z,28.98
2023-01-17T18:28:27.380Z,34.40
2023-01-17T18:30:54.279Z,35.28
2023-01-17T18:33:21.231Z,40.90
2023-01-17T18:35:55.936Z,43.85
2023-01-17T18:38:22.815Z,35.33
2023-01-17T18:40:49.662Z,35.63
2023-01-17T18:43:16.617Z,37.03
2023-01-17T18:45:43.488Z,33.10
2023-01-17T18:48:12.031Z,28.27
2023-01-17T18:50:38.910Z,32.78
2023-01-17T18:53:05.927Z,37.25
2023-01-17T18:55:32.823Z,35.28
2023-01-17T18:57:59.765Z,37.58
2023-01-17T19:00:26.678Z,34.55
2023-01-17T19:02:53.777Z,31.38
2023-01-17T19:05:21.725Z,35.13
2023-01-17T19:07:48.604Z,34.90
2023-01-17T19:10:15.762Z,28.25
2023-01-17T19:12:42.648Z,31.35
2023-01-17T19:15:10.091Z,37.58
2023-01-17T19:17:36.947Z,28.20
2023-01-17T19:20:06.511Z,38.13
2023-01-17T19:22:33.387Z,25.30
2023-01-17T19:25:00.336Z,32.38
2023-01-17T19:27:27.336Z,38.87
2023-01-17T19:29:54.387Z,31.48
2023-01-17T19:32:21.272Z,30.83
2023-01-17T19:34:48.111Z,37.30
2023-01-17T19:37:15.003Z,42.58
2023-01-17T19:39:41.868Z,32.35
2023-01-17T19:42:15.467Z,28.70
2023-01-17T19:44:42.896Z,39.13
2023-01-17T19:47:12.771Z,35.38
2023-01-17T19:49:44.432Z,38.60
2023-01-17T19:52:11.343Z,30.02
2023-01-17T19:54:38.225Z,27.77
2023-01-17T19:57:05.195Z,40.78
2023-01-17T19:59:32.120Z,33.42
2023-01-17T20:02:01.220Z,34.00
2023-01-17T20:04:28.422Z,35.85
2023-01-17T20:06:55.347Z,38.08
2023-01-17T20:09:23.912Z,42.60
2023-01-17T20:11:51.302Z,30.33
2023-01-17T20:14:18.270Z,34.60
2023-01-17T20:16:47.591Z,40.40
2023-01-17T20:19:15.395Z,35.53
2023-01-17T20:21:42.273Z,29.90
2023-01-17T20:24:11.023Z,35.70
2023-01-17T20:26:37.906Z,32.63
2023-01-17T20:29:10.365Z,36.40
2023-01-17T20:31:39.177Z,35.22
2023-01-17T20:34:08.129Z,42.60
2023-01-17T20:36:35.171Z,35.10
2023-01-17T20:39:04.798Z,30.85
2023-01-17T20:41:34.388Z,33.15
2023-01-17T20:44:03.295Z,32.55
2023-01-17T20:46:35.767Z,35.13
2023-01-17T20:49:05.580Z,39.90
2023-01-17T20:51:34.535Z,31.07
2023-01-17T20:54:04.770Z,37.78
2023-01-17T20:56:34.784Z,31.80
2023-01-17T20:59:06.247Z,36.85
2023-01-17T21:01:34.516Z,31.73
2023-01-17T21:04:01.812Z,33.07
2023-01-17T21:06:29.115Z,29.98
2023-01-17T21:08:56.149Z,36.60
2023-01-17T21:11:25.436Z,33.70
2023-01-17T21:13:52.516Z,31.70
2023-01-17T21:16:23.043Z,31.27
2023-01-17T21:18:51.636Z,35.53
2023-01-17T21:21:24.288Z,38.30
2023-01-17T21:23:53.754Z,31.30
2023-01-17T21:26:22.481Z,32.83
2023-01-17T21:28:50.785Z,33.88
2023-01-17T21:31:27.204Z,34.40
2023-01-17T21:33:59.601Z,34.17
2023-01-17T21:36:29.643Z,36.85
2023-01-17T21:38:58.618Z,24.03
2023-01-17T21:41:30.260Z,31.63
2023-01-17T21:44:00.630Z,29.60
2023-01-17T21:46:29.176Z,31.73
2023-01-17T21:48:58.875Z,34.57
2023-01-17T21:51:45.712Z,34.57
2023-01-17T21:54:12.794Z,42.25
2023-01-17T21:56:58.480Z,37.97
2023-01-17T21:59:25.413Z,28.30
2023-01-17T22:01:52.365Z,28.27
2023-01-17T22:04:19.312Z,32.15
2023-01-17T22:06:46.700Z,31.88
2023-01-17T22:09:15.185Z,33.43
2023-01-17T22:11:42.156Z,29.57
2023-01-17T22:14:09.175Z,24.60
2023-01-17T22:16:36.177Z,33.80
2023-01-17T22:19:03.100Z,27.87
2023-01-17T22:21:29.996Z,32.23
2023-01-17T22:23:59.348Z,26.30
2023-01-17T22:26:28.953Z,34.60
2023-01-17T22:28:56.557Z,35.70
2023-01-17T22:31:26.411Z,22.87
2023-01-17T22:33:58.836Z,29.87
2023-01-17T22:36:26.629Z,27.40
2023-01-17T22:38:53.621Z,36.33
2023-01-17T22:41:23.511Z,24.10
2023-01-17T22:43:52.689Z,33.70
2023-01-17T22:46:23.468Z,35.07
2023-01-17T22:48:52.284Z,25.73
2023-01-17T22:51:20.712Z,30.20
2023-01-17T22:53:53.199Z,25.80
2023-01-17T22:56:22.611Z,27.37
2023-01-17T22:58:50.297Z,31.10
2023-01-17T23:01:23.001Z,22.43
2023-01-17T23:03:55.720Z,24.43
2023-01-17T23:06:35.238Z,35.37
2023-01-17T23:09:05.457Z,29.50
2023-01-17T23:11:43.563Z,26.90
2023-01-17T23:15:06.398Z,26.97
2023-01-17T23:17:51.817Z,34.20
2023-01-17T23:20:18.880Z,30.00
2023-01-17T23:22:45.844Z,27.30
2023-01-17T23:25:14.269Z,33.97
2023-01-17T23:28:00.847Z,33.67
2023-01-17T23:30:34.667Z,35.85
2023-01-17T23:33:03.489Z,28.80
2023-01-17T23:35:33.128Z,32.80
2023-01-17T23:38:18.769Z,41.23
2023-01-17T23:41:08.862Z,32.67
2023-01-17T23:43:36.960Z,33.00
2023-01-17T23:46:04.917Z,34.10
2023-01-17T23:48:31.908Z,30.38
2023-01-17T23:51:01.118Z,41.53
2023-01-17T23:53:28.608Z,36.10
2023-01-17T23:56:06.213Z,35.10
2023-01-17T23:58:34.205Z,32.17
